sensor_id;sensor_type;location;lat;lon;timestamp;P1;durP1;ratioP1;P2;durP2;ratioP2
61905;SDS011;47863;55.766;37.672;2024-03-22T00:00:20;9.05;;;4.05;;
61905;SDS011;47863;55.766;37.672;2024-03-22T00:02:46;6.70;;;3.38;;
61905;SDS011;47863;55.766;37.672;2024-03-22T00:05:11;10.60;;;3.50;;
61905;SDS011;47863;55.766;37.672;2024-03-22T00:07:37;9.88;;;4.85;;
61905;SDS011;47863;55.766;37.672;2024-03-22T00:10:04;8.07;;;3.28;;
61905;SDS011;47863;55.766;37.672;2024-03-22T00:12:31;8.38;;;3.15;;
61905;SDS011;47863;55.766;37.672;2024-03-22T00:14:56;7.57;;;3.97;;
61905;SDS011;47863;55.766;37.672;2024-03-22T00:17:22;5.55;;;2.97;;
61905;SDS011;47863;55.766;37.672;2024-03-22T00:19:48;7.22;;;3.30;;
61905;SDS011;47863;55.766;37.672;2024-03-22T00:22:13;8.90;;;3.92;;
61905;SDS011;47863;55.766;37.672;2024-03-22T00:24:39;7.30;;;3.70;;
61905;SDS011;47863;55.766;37.672;2024-03-22T00:27:05;6.07;;;2.80;;
61905;SDS011;47863;55.766;37.672;2024-03-22T00:29:31;4.90;;;2.95;;
61905;SDS011;47863;55.766;37.672;2024-03-22T00:31:56;7.53;;;3.97;;
61905;SDS011;47863;55.766;37.672;2024-03-22T00:34:22;6.57;;;3.53;;
61905;SDS011;47863;55.766;37.672;2024-03-22T00:36:47;6.88;;;3.90;;
61905;SDS011;47863;55.766;37.672;2024-03-22T00:39:13;9.30;;;4.28;;
61905;SDS011;47863;55.766;37.672;2024-03-22T00:41:39;8.38;;;3.75;;
61905;SDS011;47863;55.766;37.672;2024-03-22T00:44:04;7.13;;;4.20;;
61905;SDS011;47863;55.766;37.672;2024-03-22T00:46:30;8.43;;;3.65;;
61905;SDS011;47863;55.766;37.672;2024-03-22T00:48:56;7.50;;;3.88;;
61905;SDS011;47863;55.766;37.672;2024-03-22T00:51:24;9.15;;;4.00;;
61905;SDS011;47863;55.766;37.672;2024-03-22T00:53:50;6.93;;;3.67;;
61905;SDS011;47863;55.766;37.672;2024-03-22T00:56:16;10.77;;;4.88;;
61905;SDS011;47863;55.766;37.672;2024-03-22T00:58:42;8.95;;;3.90;;
61905;SDS011;47863;55.766;37.672;2024-03-22T01:01:07;6.43;;;3.28;;
61905;SDS011;47863;55.766;37.672;2024-03-22T01:03:33;8.88;;;4.25;;
61905;SDS011;47863;55.766;37.672;2024-03-22T01:05:59;6.88;;;3.38;;
61905;SDS011;47863;55.766;37.672;2024-03-22T01:08:24;6.22;;;3.28;;
61905;SDS011;47863;55.766;37.672;2024-03-22T01:10:50;6.30;;;2.95;;
61905;SDS011;47863;55.766;37.672;2024-03-22T01:13:16;7.25;;;3.40;;
61905;SDS011;47863;55.766;37.672;2024-03-22T01:15:42;6.40;;;3.08;;
61905;SDS011;47863;55.766;37.672;2024-03-22T01:18:08;9.18;;;4.38;;
61905;SDS011;47863;55.766;37.672;2024-03-22T01:20:34;9.60;;;3.53;;
61905;SDS011;47863;55.766;37.672;2024-03-22T01:22:59;9.23;;;3.97;;
61905;SDS011;47863;55.766;37.672;2024-03-22T01:25:26;5.03;;;2.75;;
61905;SDS011;47863;55.766;37.672;2024-03-22T01:27:52;5.20;;;2.95;;
61905;SDS011;47863;55.766;37.672;2024-03-22T01:30:17;9.68;;;3.05;;
61905;SDS011;47863;55.766;37.672;2024-03-22T01:32:43;6.38;;;3.22;;
61905;SDS011;47863;55.766;37.672;2024-03-22T01:35:09;5.55;;;3.25;;
61905;SDS011;47863;55.766;37.672;2024-03-22T01:37:34;6.95;;;3.60;;
61905;SDS011;47863;55.766;37.672;2024-03-22T01:40:00;6.95;;;3.40;;
61905;SDS011;47863;55.766;37.672;2024-03-22T01:42:26;10.48;;;4.05;;
61905;SDS011;47863;55.766;37.672;2024-03-22T01:44:52;9.50;;;3.60;;
61905;SDS011;47863;55.766;37.672;2024-03-22T01:47:18;8.63;;;3.83;;
61905;SDS011;47863;55.766;37.672;2024-03-22T01:49:43;9.30;;;4.78;;
61905;SDS011;47863;55.766;37.672;2024-03-22T01:52:09;6.03;;;3.33;;
61905;SDS011;47863;55.766;37.672;2024-03-22T01:54:35;6.57;;;3.45;;
61905;SDS011;47863;55.766;37.672;2024-03-22T01:57:00;6.47;;;3.80;;
61905;SDS011;47863;55.766;37.672;2024-03-22T01:59:26;7.13;;;3.30;;
61905;SDS011;47863;55.766;37.672;2024-03-22T02:01:53;6.13;;;2.97;;
61905;SDS011;47863;55.766;37.672;2024-03-22T02:04:19;6.25;;;3.17;;
61905;SDS011;47863;55.766;37.672;2024-03-22T02:06:44;8.00;;;3.63;;
61905;SDS011;47863;55.766;37.672;2024-03-22T02:09:10;8.77;;;3.85;;
61905;SDS011;47863;55.766;37.672;2024-03-22T02:11:36;6.03;;;3.25;;
61905;SDS011;47863;55.766;37.672;2024-03-22T02:14:03;7.07;;;3.67;;
61905;SDS011;47863;55.766;37.672;2024-03-22T02:16:29;7.95;;;2.90;;
61905;SDS011;47863;55.766;37.672;2024-03-22T02:18:55;13.20;;;5.45;;
61905;SDS011;47863;55.766;37.672;2024-03-22T02:21:21;14.48;;;6.28;;
61905;SDS011;47863;55.766;37.672;2024-03-22T02:23:46;12.45;;;4.55;;
61905;SDS011;47863;55.766;37.672;2024-03-22T02:26:12;11.85;;;5.65;;
61905;SDS011;47863;55.766;37.672;2024-03-22T02:28:37;9.32;;;3.95;;
61905;SDS011;47863;55.766;37.672;2024-03-22T02:31:03;11.90;;;4.55;;
61905;SDS011;47863;55.766;37.672;2024-03-22T02:33:29;9.75;;;4.60;;
61905;SDS011;47863;55.766;37.672;2024-03-22T02:35:56;6.53;;;3.33;;
61905;SDS011;47863;55.766;37.672;2024-03-22T02:38:22;6.57;;;3.22;;
61905;SDS011;47863;55.766;37.672;2024-03-22T02:40:49;7.95;;;3.67;;
61905;SDS011;47863;55.766;37.672;2024-03-22T02:43:15;7.25;;;3.13;;
61905;SDS011;47863;55.766;37.672;2024-03-22T02:45:44;8.02;;;3.78;;
61905;SDS011;47863;55.766;37.672;2024-03-22T02:48:11;8.23;;;4.03;;
61905;SDS011;47863;55.766;37.672;2024-03-22T02:50:36;8.00;;;3.47;;
61905;SDS011;47863;55.766;37.672;2024-03-22T02:53:02;8.43;;;3.65;;
61905;SDS011;47863;55.766;37.672;2024-03-22T02:55:29;6.25;;;3.40;;
61905;SDS011;47863;55.766;37.672;2024-03-22T02:57:56;7.88;;;3.58;;
61905;SDS011;47863;55.766;37.672;2024-03-22T03:00:22;10.80;;;4.40;;
61905;SDS011;47863;55.766;37.672;2024-03-22T03:02:48;8.70;;;4.32;;
61905;SDS011;47863;55.766;37.672;2024-03-22T03:05:14;6.72;;;3.08;;
61905;SDS011;47863;55.766;37.672;2024-03-22T03:07:40;7.72;;;3.63;;
61905;SDS011;47863;55.766;37.672;2024-03-22T03:10:06;6.03;;;3.10;;
61905;SDS011;47863;55.766;37.672;2024-03-22T03:12:32;6.95;;;4.15;;
61905;SDS011;47863;55.766;37.672;2024-03-22T03:14:57;9.40;;;3.55;;
61905;SDS011;47863;55.766;37.672;2024-03-22T03:17:23;9.63;;;4.03;;
61905;SDS011;47863;55.766;37.672;2024-03-22T03:19:49;8.88;;;4.47;;
61905;SDS011;47863;55.766;37.672;2024-03-22T03:22:14;9.05;;;4.40;;
61905;SDS011;47863;55.766;37.672;2024-03-22T03:24:40;5.72;;;3.00;;
61905;SDS011;47863;55.766;37.672;2024-03-22T03:27:06;8.15;;;4.30;;
61905;SDS011;47863;55.766;37.672;2024-03-22T03:29:32;8.70;;;3.50;;
61905;SDS011;47863;55.766;37.672;2024-03-22T03:31:57;5.97;;;3.05;;
61905;SDS011;47863;55.766;37.672;2024-03-22T03:34:23;6.47;;;3.08;;
61905;SDS011;47863;55.766;37.672;2024-03-22T03:36:48;5.45;;;2.65;;
61905;SDS011;47863;55.766;37.672;2024-03-22T03:39:14;6.88;;;3.67;;
61905;SDS011;47863;55.766;37.672;2024-03-22T03:41:40;6.82;;;2.97;;
61905;SDS011;47863;55.766;37.672;2024-03-22T03:44:05;13.20;;;5.75;;
61905;SDS011;47863;55.766;37.672;2024-03-22T03:46:31;10.70;;;3.88;;
61905;SDS011;47863;55.766;37.672;2024-03-22T03:48:56;6.43;;;3.42;;
61905;SDS011;47863;55.766;37.672;2024-03-22T03:51:22;9.02;;;4.07;;
61905;SDS011;47863;55.766;37.672;2024-03-22T03:53:47;7.43;;;3.88;;
61905;SDS011;47863;55.766;37.672;2024-03-22T03:56:13;7.55;;;3.38;;
61905;SDS011;47863;55.766;37.672;2024-03-22T03:58:38;11.75;;;4.15;;
61905;SDS011;47863;55.766;37.672;2024-03-22T04:01:05;11.32;;;4.75;;
61905;SDS011;47863;55.766;37.672;2024-03-22T04:03:31;9.60;;;3.53;;
61905;SDS011;47863;55.766;37.672;2024-03-22T04:05:57;8.20;;;3.85;;
61905;SDS011;47863;55.766;37.672;2024-03-22T04:08:24;13.32;;;5.53;;
61905;SDS011;47863;55.766;37.672;2024-03-22T04:10:53;8.38;;;3.58;;
61905;SDS011;47863;55.766;37.672;2024-03-22T04:13:21;10.75;;;5.47;;
61905;SDS011;47863;55.766;37.672;2024-03-22T04:15:46;9.50;;;3.83;;
61905;SDS011;47863;55.766;37.672;2024-03-22T04:18:12;9.30;;;4.00;;
61905;SDS011;47863;55.766;37.672;2024-03-22T04:20:38;7.38;;;3.95;;
61905;SDS011;47863;55.766;37.672;2024-03-22T04:23:03;6.32;;;3.20;;
61905;SDS011;47863;55.766;37.672;2024-03-22T04:25:29;10.23;;;4.80;;
61905;SDS011;47863;55.766;37.672;2024-03-22T04:27:54;8.48;;;3.47;;
61905;SDS011;47863;55.766;37.672;2024-03-22T04:30:20;11.65;;;4.95;;
61905;SDS011;47863;55.766;37.672;2024-03-22T04:32:46;14.90;;;6.80;;
61905;SDS011;47863;55.766;37.672;2024-03-22T04:35:12;9.85;;;4.50;;
61905;SDS011;47863;55.766;37.672;2024-03-22T04:37:41;7.38;;;3.92;;
61905;SDS011;47863;55.766;37.672;2024-03-22T04:40:06;6.57;;;3.63;;
61905;SDS011;47863;55.766;37.672;2024-03-22T04:42:35;11.73;;;5.93;;
61905;SDS011;47863;55.766;37.672;2024-03-22T04:45:00;12.93;;;5.60;;
61905;SDS011;47863;55.766;37.672;2024-03-22T04:47:26;12.88;;;6.03;;
61905;SDS011;47863;55.766;37.672;2024-03-22T04:49:52;9.20;;;5.10;;
61905;SDS011;47863;55.766;37.672;2024-03-22T04:52:17;10.15;;;5.22;;
61905;SDS011;47863;55.766;37.672;2024-03-22T04:54:43;8.80;;;5.25;;
61905;SDS011;47863;55.766;37.672;2024-03-22T04:57:08;9.98;;;5.55;;
61905;SDS011;47863;55.766;37.672;2024-03-22T04:59:34;14.18;;;6.75;;
61905;SDS011;47863;55.766;37.672;2024-03-22T05:02:02;12.82;;;6.50;;
61905;SDS011;47863;55.766;37.672;2024-03-22T05:04:28;13.68;;;4.68;;
61905;SDS011;47863;55.766;37.672;2024-03-22T05:06:53;12.25;;;6.25;;
61905;SDS011;47863;55.766;37.672;2024-03-22T05:09:19;12.70;;;6.50;;
61905;SDS011;47863;55.766;37.672;2024-03-22T05:11:45;9.23;;;5.55;;
61905;SDS011;47863;55.766;37.672;2024-03-22T05:14:15;8.55;;;4.70;;
61905;SDS011;47863;55.766;37.672;2024-03-22T05:16:40;10.02;;;5.18;;
61905;SDS011;47863;55.766;37.672;2024-03-22T05:19:06;9.52;;;4.97;;
61905;SDS011;47863;55.766;37.672;2024-03-22T05:21:32;10.75;;;5.32;;
61905;SDS011;47863;55.766;37.672;2024-03-22T05:23:57;11.48;;;5.93;;
61905;SDS011;47863;55.766;37.672;2024-03-22T05:26:23;10.02;;;5.55;;
61905;SDS011;47863;55.766;37.672;2024-03-22T05:28:48;10.73;;;5.32;;
61905;SDS011;47863;55.766;37.672;2024-03-22T05:31:14;17.42;;;8.05;;
61905;SDS011;47863;55.766;37.672;2024-03-22T05:33:40;16.88;;;8.27;;
61905;SDS011;47863;55.766;37.672;2024-03-22T05:36:05;12.95;;;6.07;;
61905;SDS011;47863;55.766;37.672;2024-03-22T05:38:31;11.13;;;6.10;;
61905;SDS011;47863;55.766;37.672;2024-03-22T05:40:57;13.40;;;7.20;;
61905;SDS011;47863;55.766;37.672;2024-03-22T05:43:22;12.57;;;7.63;;
61905;SDS011;47863;55.766;37.672;2024-03-22T05:45:48;12.73;;;6.40;;
61905;SDS011;47863;55.766;37.672;2024-03-22T05:48:14;13.55;;;7.97;;
61905;SDS011;47863;55.766;37.672;2024-03-22T05:50:40;11.88;;;6.65;;
61905;SDS011;47863;55.766;37.672;2024-03-22T05:53:06;13.85;;;8.35;;
61905;SDS011;47863;55.766;37.672;2024-03-22T05:55:31;18.00;;;8.82;;
61905;SDS011;47863;55.766;37.672;2024-03-22T05:57:57;12.70;;;7.82;;
61905;SDS011;47863;55.766;37.672;2024-03-22T06:00:23;15.55;;;7.60;;
61905;SDS011;47863;55.766;37.672;2024-03-22T06:02:48;11.90;;;7.55;;
61905;SDS011;47863;55.766;37.672;2024-03-22T06:05:14;15.18;;;7.38;;
61905;SDS011;47863;55.766;37.672;2024-03-22T06:07:40;17.23;;;7.35;;
61905;SDS011;47863;55.766;37.672;2024-03-22T06:10:07;18.73;;;8.35;;
61905;SDS011;47863;55.766;37.672;2024-03-22T06:12:35;12.48;;;7.60;;
61905;SDS011;47863;55.766;37.672;2024-03-22T06:15:01;15.60;;;8.35;;
61905;SDS011;47863;55.766;37.672;2024-03-22T06:17:32;15.23;;;8.77;;
61905;SDS011;47863;55.766;37.672;2024-03-22T06:19:58;15.27;;;8.30;;
61905;SDS011;47863;55.766;37.672;2024-03-22T06:22:25;13.68;;;8.32;;
61905;SDS011;47863;55.766;37.672;2024-03-22T06:24:50;18.45;;;10.05;;
61905;SDS011;47863;55.766;37.672;2024-03-22T06:27:16;21.80;;;10.00;;
61905;SDS011;47863;55.766;37.672;2024-03-22T06:29:41;14.55;;;8.40;;
61905;SDS011;47863;55.766;37.672;2024-03-22T06:32:07;18.55;;;9.52;;
61905;SDS011;47863;55.766;37.672;2024-03-22T06:34:32;16.70;;;9.93;;
61905;SDS011;47863;55.766;37.672;2024-03-22T06:36:58;13.52;;;7.93;;
61905;SDS011;47863;55.766;37.672;2024-03-22T06:39:23;16.80;;;8.82;;
61905;SDS011;47863;55.766;37.672;2024-03-22T06:41:49;15.57;;;8.80;;
61905;SDS011;47863;55.766;37.672;2024-03-22T06:44:15;13.27;;;9.68;;
61905;SDS011;47863;55.766;37.672;2024-03-22T06:46:40;13.77;;;9.15;;
61905;SDS011;47863;55.766;37.672;2024-03-22T06:49:06;14.85;;;8.77;;
61905;SDS011;47863;55.766;37.672;2024-03-22T06:51:32;14.75;;;8.60;;
61905;SDS011;47863;55.766;37.672;2024-03-22T06:53:57;13.65;;;7.88;;
61905;SDS011;47863;55.766;37.672;2024-03-22T06:56:23;18.42;;;11.07;;
61905;SDS011;47863;55.766;37.672;2024-03-22T06:58:49;11.32;;;7.53;;
61905;SDS011;47863;55.766;37.672;2024-03-22T07:01:14;16.40;;;9.02;;
61905;SDS011;47863;55.766;37.672;2024-03-22T07:03:41;15.75;;;8.70;;
61905;SDS011;47863;55.766;37.672;2024-03-22T07:06:10;17.77;;;10.52;;
61905;SDS011;47863;55.766;37.672;2024-03-22T07:08:36;14.68;;;8.98;;
61905;SDS011;47863;55.766;37.672;2024-03-22T07:11:04;18.50;;;9.90;;
61905;SDS011;47863;55.766;37.672;2024-03-22T07:13:31;15.65;;;9.40;;
61905;SDS011;47863;55.766;37.672;2024-03-22T07:15:57;9.95;;;6.82;;
61905;SDS011;47863;55.766;37.672;2024-03-22T07:18:23;24.80;;;13.35;;
61905;SDS011;47863;55.766;37.672;2024-03-22T07:20:48;19.48;;;12.55;;
61905;SDS011;47863;55.766;37.672;2024-03-22T07:23:14;21.13;;;11.88;;
61905;SDS011;47863;55.766;37.672;2024-03-22T07:25:39;15.07;;;9.45;;
61905;SDS011;47863;55.766;37.672;2024-03-22T07:28:08;20.50;;;12.57;;
61905;SDS011;47863;55.766;37.672;2024-03-22T07:30:33;19.15;;;10.93;;
61905;SDS011;47863;55.766;37.672;2024-03-22T07:33:00;20.30;;;13.00;;
61905;SDS011;47863;55.766;37.672;2024-03-22T07:35:26;13.70;;;9.80;;
61905;SDS011;47863;55.766;37.672;2024-03-22T07:37:53;16.30;;;9.68;;
61905;SDS011;47863;55.766;37.672;2024-03-22T07:40:18;16.38;;;10.60;;
61905;SDS011;47863;55.766;37.672;2024-03-22T07:42:46;17.85;;;11.07;;
61905;SDS011;47863;55.766;37.672;2024-03-22T07:45:12;17.60;;;9.98;;
61905;SDS011;47863;55.766;37.672;2024-03-22T07:47:38;18.48;;;9.63;;
61905;SDS011;47863;55.766;37.672;2024-03-22T07:50:05;15.00;;;10.48;;
61905;SDS011;47863;55.766;37.672;2024-03-22T07:52:31;13.93;;;10.02;;
61905;SDS011;47863;55.766;37.672;2024-03-22T07:54:57;16.42;;;10.57;;
61905;SDS011;47863;55.766;37.672;2024-03-22T07:57:23;14.98;;;10.40;;
61905;SDS011;47863;55.766;37.672;2024-03-22T07:59:49;11.45;;;7.65;;
61905;SDS011;47863;55.766;37.672;2024-03-22T08:02:15;12.43;;;9.65;;
61905;SDS011;47863;55.766;37.672;2024-03-22T08:04:40;14.73;;;10.68;;
61905;SDS011;47863;55.766;37.672;2024-03-22T08:07:06;15.63;;;10.20;;
61905;SDS011;47863;55.766;37.672;2024-03-22T08:09:31;16.35;;;9.25;;
61905;SDS011;47863;55.766;37.672;2024-03-22T08:11:57;13.55;;;8.82;;
61905;SDS011;47863;55.766;37.672;2024-03-22T08:14:22;16.13;;;9.18;;
61905;SDS011;47863;55.766;37.672;2024-03-22T08:16:48;11.70;;;8.50;;
61905;SDS011;47863;55.766;37.672;2024-03-22T08:19:14;12.07;;;8.93;;
61905;SDS011;47863;55.766;37.672;2024-03-22T08:21:39;9.20;;;5.05;;
61905;SDS011;47863;55.766;37.672;2024-03-22T08:24:05;17.83;;;10.10;;
61905;SDS011;47863;55.766;37.672;2024-03-22T08:26:31;11.80;;;8.25;;
61905;SDS011;47863;55.766;37.672;2024-03-22T08:28:56;16.65;;;9.45;;
61905;SDS011;47863;55.766;37.672;2024-03-22T08:31:22;18.75;;;10.85;;
61905;SDS011;47863;55.766;37.672;2024-03-22T08:33:51;14.13;;;8.70;;
61905;SDS011;47863;55.766;37.672;2024-03-22T08:36:17;16.90;;;9.77;;
61905;SDS011;47863;55.766;37.672;2024-03-22T08:38:43;12.55;;;7.55;;
61905;SDS011;47863;55.766;37.672;2024-03-22T08:41:08;11.38;;;8.98;;
61905;SDS011;47863;55.766;37.672;2024-03-22T08:43:34;13.70;;;8.57;;
61905;SDS011;47863;55.766;37.672;2024-03-22T08:45:59;17.65;;;10.85;;
61905;SDS011;47863;55.766;37.672;2024-03-22T08:48:25;10.90;;;7.68;;
61905;SDS011;47863;55.766;37.672;2024-03-22T08:50:50;17.85;;;9.40;;
61905;SDS011;47863;55.766;37.672;2024-03-22T08:53:16;11.15;;;7.80;;
61905;SDS011;47863;55.766;37.672;2024-03-22T08:55:46;14.23;;;8.38;;
61905;SDS011;47863;55.766;37.672;2024-03-22T08:58:13;12.07;;;6.20;;
61905;SDS011;47863;55.766;37.672;2024-03-22T09:00:41;10.85;;;7.47;;
61905;SDS011;47863;55.766;37.672;2024-03-22T09:03:07;15.48;;;8.35;;
61905;SDS011;47863;55.766;37.672;2024-03-22T09:05:32;13.15;;;8.30;;
61905;SDS011;47863;55.766;37.672;2024-03-22T09:07:59;11.23;;;7.53;;
61905;SDS011;47863;55.766;37.672;2024-03-22T09:10:25;17.23;;;7.85;;
61905;SDS011;47863;55.766;37.672;2024-03-22T09:12:51;9.18;;;6.95;;
61905;SDS011;47863;55.766;37.672;2024-03-22T09:15:17;13.43;;;7.80;;
61905;SDS011;47863;55.766;37.672;2024-03-22T09:17:42;12.23;;;6.85;;
61905;SDS011;47863;55.766;37.672;2024-03-22T09:20:08;13.25;;;7.38;;
61905;SDS011;47863;55.766;37.672;2024-03-22T09:22:34;9.38;;;6.40;;
61905;SDS011;47863;55.766;37.672;2024-03-22T09:25:00;13.82;;;7.13;;
61905;SDS011;47863;55.766;37.672;2024-03-22T09:27:26;15.02;;;7.18;;
61905;SDS011;47863;55.766;37.672;2024-03-22T09:29:51;8.38;;;5.10;;
61905;SDS011;47863;55.766;37.672;2024-03-22T09:32:18;8.50;;;6.38;;
61905;SDS011;47863;55.766;37.672;2024-03-22T09:34:43;10.00;;;6.80;;
61905;SDS011;47863;55.766;37.672;2024-03-22T09:37:09;12.23;;;7.03;;
61905;SDS011;47863;55.766;37.672;2024-03-22T09:39:35;13.27;;;6.65;;
61905;SDS011;47863;55.766;37.672;2024-03-22T09:42:00;10.70;;;6.38;;
61905;SDS011;47863;55.766;37.672;2024-03-22T09:44:31;12.48;;;6.88;;
61905;SDS011;47863;55.766;37.672;2024-03-22T09:46:58;9.10;;;6.18;;
61905;SDS011;47863;55.766;37.672;2024-03-22T09:49:26;11.68;;;6.60;;
61905;SDS011;47863;55.766;37.672;2024-03-22T09:51:52;11.77;;;5.95;;
61905;SDS011;47863;55.766;37.672;2024-03-22T09:54:18;8.23;;;6.10;;
61905;SDS011;47863;55.766;37.672;2024-03-22T09:56:43;13.95;;;7.25;;
61905;SDS011;47863;55.766;37.672;2024-03-22T09:59:12;9.38;;;6.00;;
61905;SDS011;47863;55.766;37.672;2024-03-22T10:01:38;10.95;;;6.05;;
61905;SDS011;47863;55.766;37.672;2024-03-22T10:04:05;12.75;;;6.25;;
61905;SDS011;47863;55.766;37.672;2024-03-22T10:06:30;7.40;;;5.13;;
61905;SDS011;47863;55.766;37.672;2024-03-22T10:09:00;10.48;;;5.82;;
61905;SDS011;47863;55.766;37.672;2024-03-22T10:11:29;7.45;;;5.13;;
61905;SDS011;47863;55.766;37.672;2024-03-22T10:13:54;8.20;;;6.28;;
61905;SDS011;47863;55.766;37.672;2024-03-22T10:16:21;9.20;;;5.90;;
61905;SDS011;47863;55.766;37.672;2024-03-22T10:18:47;7.63;;;4.80;;
61905;SDS011;47863;55.766;37.672;2024-03-22T10:21:17;9.05;;;5.13;;
61905;SDS011;47863;55.766;37.672;2024-03-22T10:23:43;5.78;;;4.18;;
61905;SDS011;47863;55.766;37.672;2024-03-22T10:26:10;8.40;;;5.15;;
61905;SDS011;47863;55.766;37.672;2024-03-22T10:28:35;10.77;;;5.90;;
61905;SDS011;47863;55.766;37.672;2024-03-22T10:31:01;9.15;;;6.35;;
61905;SDS011;47863;55.766;37.672;2024-03-22T10:33:27;8.35;;;4.30;;
61905;SDS011;47863;55.766;37.672;2024-03-22T10:35:54;7.05;;;4.78;;
61905;SDS011;47863;55.766;37.672;2024-03-22T10:38:20;10.32;;;5.55;;
61905;SDS011;47863;55.766;37.672;2024-03-22T10:40:47;7.53;;;5.53;;
61905;SDS011;47863;55.766;37.672;2024-03-22T10:43:14;9.65;;;5.38;;
61905;SDS011;47863;55.766;37.672;2024-03-22T10:45:40;11.48;;;5.97;;
61905;SDS011;47863;55.766;37.672;2024-03-22T10:48:10;8.98;;;4.97;;
61905;SDS011;47863;55.766;37.672;2024-03-22T10:50:38;7.55;;;5.18;;
61905;SDS011;47863;55.766;37.672;2024-03-22T10:53:06;7.75;;;4.95;;
61905;SDS011;47863;55.766;37.672;2024-03-22T10:55:44;10.60;;;5.53;;
61905;SDS011;47863;55.766;37.672;2024-03-22T11:00:43;6.97;;;5.10;;
61905;SDS011;47863;55.766;37.672;2024-03-22T11:03:10;8.82;;;5.22;;
61905;SDS011;47863;55.766;37.672;2024-03-22T11:05:45;9.20;;;5.03;;
61905;SDS011;47863;55.766;37.672;2024-03-22T11:08:25;8.55;;;5.40;;
61905;SDS011;47863;55.766;37.672;2024-03-22T11:10:56;7.63;;;4.80;;
61905;SDS011;47863;55.766;37.672;2024-03-22T11:13:22;7.20;;;5.10;;
61905;SDS011;47863;55.766;37.672;2024-03-22T11:15:51;8.93;;;5.35;;
61905;SDS011;47863;55.766;37.672;2024-03-22T11:18:17;8.82;;;5.28;;
61905;SDS011;47863;55.766;37.672;2024-03-22T11:20:43;6.97;;;4.50;;
61905;SDS011;47863;55.766;37.672;2024-03-22T11:23:13;7.50;;;4.88;;
61905;SDS011;47863;55.766;37.672;2024-03-22T11:25:40;11.40;;;6.15;;
61905;SDS011;47863;55.766;37.672;2024-03-22T11:28:06;9.93;;;5.40;;
61905;SDS011;47863;55.766;37.672;2024-03-22T11:30:32;11.27;;;5.40;;
61905;SDS011;47863;55.766;37.672;2024-03-22T11:33:02;7.60;;;4.97;;
61905;SDS011;47863;55.766;37.672;2024-03-22T11:37:55;7.85;;;5.30;;
61905;SDS011;47863;55.766;37.672;2024-03-22T11:40:21;11.88;;;4.72;;
61905;SDS011;47863;55.766;37.672;2024-03-22T11:42:49;8.75;;;4.25;;
61905;SDS011;47863;55.766;37.672;2024-03-22T11:45:17;8.55;;;4.95;;
61905;SDS011;47863;55.766;37.672;2024-03-22T11:47:44;9.63;;;5.05;;
61905;SDS011;47863;55.766;37.672;2024-03-22T11:50:11;11.48;;;5.03;;
61905;SDS011;47863;55.766;37.672;2024-03-22T11:52:40;8.30;;;5.32;;
61905;SDS011;47863;55.766;37.672;2024-03-22T11:55:06;7.53;;;4.75;;
61905;SDS011;47863;55.766;37.672;2024-03-22T11:57:32;7.10;;;4.30;;
61905;SDS011;47863;55.766;37.672;2024-03-22T11:59:58;6.45;;;4.15;;
61905;SDS011;47863;55.766;37.672;2024-03-22T12:02:25;8.07;;;4.50;;
61905;SDS011;47863;55.766;37.672;2024-03-22T12:04:51;10.18;;;5.63;;
61905;SDS011;47863;55.766;37.672;2024-03-22T12:07:17;8.05;;;4.78;;
61905;SDS011;47863;55.766;37.672;2024-03-22T12:09:46;13.00;;;6.00;;
61905;SDS011;47863;55.766;37.672;2024-03-22T12:12:12;8.23;;;5.35;;
61905;SDS011;47863;55.766;37.672;2024-03-22T12:14:39;8.20;;;5.38;;
61905;SDS011;47863;55.766;37.672;2024-03-22T12:17:05;9.40;;;4.93;;
61905;SDS011;47863;55.766;37.672;2024-03-22T12:19:31;9.23;;;5.80;;
61905;SDS011;47863;55.766;37.672;2024-03-22T12:21:57;8.00;;;5.07;;
61905;SDS011;47863;55.766;37.672;2024-03-22T12:24:23;9.30;;;5.40;;
61905;SDS011;47863;55.766;37.672;2024-03-22T12:26:49;6.88;;;4.40;;
61905;SDS011;47863;55.766;37.672;2024-03-22T12:29:16;8.60;;;5.18;;
61905;SDS011;47863;55.766;37.672;2024-03-22T12:31:42;10.40;;;5.70;;
61905;SDS011;47863;55.766;37.672;2024-03-22T12:34:08;10.32;;;5.03;;
61905;SDS011;47863;55.766;37.672;2024-03-22T12:36:34;10.80;;;4.68;;
61905;SDS011;47863;55.766;37.672;2024-03-22T12:39:00;11.43;;;5.22;;
61905;SDS011;47863;55.766;37.672;2024-03-22T12:41:26;8.25;;;4.63;;
61905;SDS011;47863;55.766;37.672;2024-03-22T12:43:54;9.18;;;4.65;;
61905;SDS011;47863;55.766;37.672;2024-03-22T12:46:20;8.02;;;4.22;;
61905;SDS011;47863;55.766;37.672;2024-03-22T12:48:45;11.40;;;4.60;;
61905;SDS011;47863;55.766;37.672;2024-03-22T12:51:11;7.57;;;4.53;;
61905;SDS011;47863;55.766;37.672;2024-03-22T12:53:37;12.95;;;5.03;;
61905;SDS011;47863;55.766;37.672;2024-03-22T12:56:03;8.35;;;4.63;;
61905;SDS011;47863;55.766;37.672;2024-03-22T12:58:29;8.98;;;5.00;;
61905;SDS011;47863;55.766;37.672;2024-03-22T13:00:58;8.60;;;4.50;;
61905;SDS011;47863;55.766;37.672;2024-03-22T13:03:26;9.00;;;4.85;;
61905;SDS011;47863;55.766;37.672;2024-03-22T13:05:52;7.68;;;5.20;;
61905;SDS011;47863;55.766;37.672;2024-03-22T13:08:20;6.97;;;4.10;;
61905;SDS011;47863;55.766;37.672;2024-03-22T13:10:46;8.23;;;4.40;;
61905;SDS011;47863;55.766;37.672;2024-03-22T13:13:13;7.05;;;4.47;;
61905;SDS011;47863;55.766;37.672;2024-03-22T13:15:41;7.00;;;4.55;;
61905;SDS011;47863;55.766;37.672;2024-03-22T13:18:07;7.28;;;4.78;;
61905;SDS011;47863;55.766;37.672;2024-03-22T13:20:35;6.20;;;3.80;;
61905;SDS011;47863;55.766;37.672;2024-03-22T13:23:01;7.50;;;4.07;;
61905;SDS011;47863;55.766;37.672;2024-03-22T13:25:27;8.15;;;4.65;;
61905;SDS011;47863;55.766;37.672;2024-03-22T13:27:53;7.55;;;3.63;;
61905;SDS011;47863;55.766;37.672;2024-03-22T13:30:19;8.15;;;4.15;;
61905;SDS011;47863;55.766;37.672;2024-03-22T13:32:44;7.53;;;3.55;;
61905;SDS011;47863;55.766;37.672;2024-03-22T13:35:10;8.07;;;4.18;;
61905;SDS011;47863;55.766;37.672;2024-03-22T13:37:36;7.65;;;4.60;;
61905;SDS011;47863;55.766;37.672;2024-03-22T13:40:01;9.90;;;4.30;;
61905;SDS011;47863;55.766;37.672;2024-03-22T13:42:30;7.95;;;3.97;;
61905;SDS011;47863;55.766;37.672;2024-03-22T13:44:55;9.77;;;3.78;;
61905;SDS011;47863;55.766;37.672;2024-03-22T13:47:22;8.98;;;4.35;;
61905;SDS011;47863;55.766;37.672;2024-03-22T13:49:48;9.98;;;3.60;;
61905;SDS011;47863;55.766;37.672;2024-03-22T13:52:13;7.18;;;3.67;;
61905;SDS011;47863;55.766;37.672;2024-03-22T13:54:39;9.40;;;4.50;;
61905;SDS011;47863;55.766;37.672;2024-03-22T13:57:05;9.13;;;3.92;;
61905;SDS011;47863;55.766;37.672;2024-03-22T13:59:31;10.48;;;3.85;;
61905;SDS011;47863;55.766;37.672;2024-03-22T14:01:57;10.57;;;3.90;;
61905;SDS011;47863;55.766;37.672;2024-03-22T14:04:23;12.88;;;4.05;;
61905;SDS011;47863;55.766;37.672;2024-03-22T14:06:51;7.05;;;3.42;;
61905;SDS011;47863;55.766;37.672;2024-03-22T14:09:20;9.57;;;4.22;;
61905;SDS011;47863;55.766;37.672;2024-03-22T14:11:45;9.20;;;4.20;;
61905;SDS011;47863;55.766;37.672;2024-03-22T14:14:14;9.00;;;4.22;;
61905;SDS011;47863;55.766;37.672;2024-03-22T14:16:40;7.93;;;4.15;;
61905;SDS011;47863;55.766;37.672;2024-03-22T14:19:09;8.32;;;4.28;;
61905;SDS011;47863;55.766;37.672;2024-03-22T14:21:35;5.43;;;3.20;;
61905;SDS011;47863;55.766;37.672;2024-03-22T14:24:01;7.22;;;3.70;;
61905;SDS011;47863;55.766;37.672;2024-03-22T14:26:28;6.45;;;3.30;;